createdAt,value
2023-05-03T00:00:40.861Z,58.29
2023-05-03T00:03:43.393Z,58.26
2023-05-03T00:06:45.162Z,58.46
2023-05-03T00:09:49.674Z,58.07
2023-05-03T00:12:51.137Z,58.40
2023-05-03T00:15:52.641Z,58.40
2023-05-03T00:18:54.262Z,58.05
2023-05-03T00:21:55.716Z,58.36
2023-05-03T00:24:57.264Z,58.76
2023-05-03T00:27:58.708Z,58.22
2023-05-03T00:31:10.342Z,58.21
2023-05-03T00:34:11.911Z,58.37
2023-05-03T00:37:13.386Z,58.34
2023-05-03T00:40:18.495Z,58.32
2023-05-03T00:43:19.980Z,58.51
2023-05-03T00:46:21.701Z,58.42
2023-05-03T00:49:26.666Z,58.44
2023-05-03T00:52:29.355Z,58.45
2023-05-03T00:55:32.002Z,58.37
2023-05-03T00:58:36.142Z,58.39
2023-05-03T01:01:37.703Z,58.58
2023-05-03T01:04:42.350Z,58.50
2023-05-03T01:07:53.690Z,58.48
2023-05-03T01:11:02.884Z,58.53
2023-05-03T01:14:16.501Z,58.43
2023-05-03T01:17:25.404Z,58.50
2023-05-03T01:20:30.769Z,58.56
2023-05-03T01:23:51.733Z,58.51
2023-05-03T01:26:53.198Z,58.74
2023-05-03T01:29:54.647Z,58.33
2023-05-03T01:33:10.983Z,58.55
2023-05-03T01:36:22.635Z,58.67
2023-05-03T01:39:49.896Z,58.50
2023-05-03T01:42:53.430Z,58.59
2023-05-03T01:45:55.072Z,58.54
2023-05-03T01:48:56.550Z,58.51
2023-05-03T01:51:58.014Z,58.86
2023-05-03T01:55:00.119Z,58.57
2023-05-03T01:58:01.606Z,58.59
2023-05-03T02:01:05.574Z,58.63
2023-05-03T02:04:07.245Z,58.61
2023-05-03T02:07:09.290Z,58.60
2023-05-03T02:10:14.912Z,58.67
2023-05-03T02:13:16.723Z,58.62
2023-05-03T02:16:18.815Z,58.70
2023-05-03T02:19:20.486Z,58.55
2023-05-03T02:22:22.003Z,58.65
2023-05-03T02:25:23.853Z,58.61
2023-05-03T02:28:26.280Z,58.61
2023-05-03T02:31:28.024Z,58.66
2023-05-03T02:34:32.781Z,58.71
2023-05-03T02:37:34.388Z,58.71
2023-05-03T02:40:40.678Z,58.71
2023-05-03T02:43:42.170Z,58.64
2023-05-03T02:46:44.389Z,58.75
2023-05-03T02:49:45.999Z,58.42
2023-05-03T02:52:48.099Z,58.85
2023-05-03T02:55:50.102Z,58.78
2023-05-03T02:58:51.941Z,59.22
2023-05-03T03:01:54.714Z,59.10
2023-05-03T03:04:56.199Z,59.02
2023-05-03T03:07:58.592Z,59.04
2023-05-03T03:11:01.690Z,59.00
2023-05-03T03:14:03.208Z,58.68
2023-05-03T03:17:08.910Z,58.96
2023-05-03T03:20:13.427Z,58.80
2023-05-03T03:23:18.687Z,59.00
2023-05-03T03:26:20.245Z,58.87
2023-05-03T03:29:21.861Z,58.82
2023-05-03T03:32:24.232Z,58.95
2023-05-03T03:35:26.844Z,59.00
2023-05-03T03:38:28.499Z,58.99
2023-05-03T03:41:36.206Z,58.76
2023-05-03T03:44:38.314Z,58.87
2023-05-03T03:47:41.148Z,58.86
2023-05-03T03:50:42.934Z,58.79
2023-05-03T03:53:46.452Z,58.68
2023-05-03T03:56:48.238Z,58.53
2023-05-03T03:59:50.367Z,58.63
2023-05-03T04:02:51.955Z,58.49
2023-05-03T04:05:54.933Z,58.49
2023-05-03T04:08:57.024Z,58.24
2023-05-03T04:11:59.683Z,58.00
2023-05-03T04:15:01.277Z,58.18
2023-05-03T04:18:04.069Z,58.17
2023-05-03T04:21:05.905Z,58.17
2023-05-03T04:24:07.869Z,58.07
2023-05-03T04:27:09.831Z,58.12
2023-05-03T04:30:15.543Z,58.05
2023-05-03T04:33:21.535Z,58.23
2023-05-03T04:36:25.859Z,58.14
2023-05-03T04:39:29.019Z,58.28
2023-05-03T04:42:30.847Z,58.18
2023-05-03T04:45:32.959Z,58.26
2023-05-03T04:48:36.237Z,58.58
2023-05-03T04:51:37.752Z,58.25
2023-05-03T04:54:39.971Z,58.34
2023-05-03T04:57:42.515Z,58.51
2023-05-03T05:00:46.428Z,58.63
2023-05-03T05:03:54.532Z,58.66
2023-05-03T05:07:00.967Z,58.70
2023-05-03T05:10:06.478Z,58.73
2023-05-03T05:13:08.188Z,58.78
2023-05-03T05:16:10.150Z,58.58
2023-05-03T05:19:14.911Z,58.73
2023-05-03T05:22:16.578Z,58.87
2023-05-03T05:25:23.398Z,58.93
2023-05-03T05:28:24.902Z,59.59
2023-05-03T05:31:26.454Z,59.68
2023-05-03T05:34:30.919Z,59.96
2023-05-03T05:37:35.697Z,60.20
2023-05-03T05:40:39.264Z,60.36
2023-05-03T05:43:40.820Z,60.29
2023-05-03T05:46:42.772Z,60.19
2023-05-03T05:49:44.496Z,60.27
2023-05-03T05:52:47.964Z,60.69
2023-05-03T05:55:49.564Z,60.71
2023-05-03T05:58:52.398Z,60.68
2023-05-03T06:01:54.664Z,60.65
2023-05-03T06:04:56.320Z,60.46
2023-05-03T06:07:57.914Z,60.58
2023-05-03T06:10:59.506Z,60.60
2023-05-03T06:14:03.919Z,60.78
2023-05-03T06:17:06.295Z,60.54
2023-05-03T06:20:11.853Z,60.83
2023-05-03T06:23:15.156Z,60.62
2023-05-03T06:26:17.487Z,55.48
2023-05-03T06:29:19.930Z,51.91
2023-05-03T06:32:21.810Z,48.98
2023-05-03T06:35:23.713Z,47.07
2023-05-03T06:38:25.332Z,46.67
2023-05-03T06:41:26.766Z,48.06
2023-05-03T06:44:28.324Z,48.29
2023-05-03T06:47:29.791Z,48.96
2023-05-03T06:50:31.960Z,49.13
2023-05-03T06:53:33.421Z,49.43
2023-05-03T06:56:36.111Z,50.08
2023-05-03T06:59:37.591Z,50.88
2023-05-03T07:02:39.132Z,50.88
2023-05-03T07:05:40.670Z,50.96
2023-05-03T07:08:42.514Z,51.54
2023-05-03T07:11:49.368Z,51.60
2023-05-03T07:14:50.826Z,50.91
2023-05-03T07:17:52.336Z,47.71
2023-05-03T07:20:53.912Z,47.42
2023-05-03T07:23:55.454Z,45.80
2023-05-03T07:26:58.003Z,46.75
2023-05-03T07:30:00.284Z,46.73
2023-05-03T07:33:01.985Z,46.63
2023-05-03T07:36:05.178Z,47.88
2023-05-03T07:39:07.384Z,49.49
2023-05-03T07:42:08.908Z,50.48
2023-05-03T07:45:10.657Z,51.11
2023-05-03T07:48:12.232Z,51.65
2023-05-03T07:51:13.767Z,52.19
2023-05-03T07:54:15.598Z,52.35
2023-05-03T07:57:17.366Z,52.92
2023-05-03T08:00:19.068Z,53.15
2023-05-03T08:03:21.443Z,53.43
2023-05-03T08:06:23.275Z,53.81
2023-05-03T08:09:24.997Z,54.14
2023-05-03T08:12:26.836Z,54.33
2023-05-03T08:15:28.416Z,54.48
2023-05-03T08:18:29.939Z,54.74
2023-05-03T08:21:33.213Z,54.78
2023-05-03T08:24:35.059Z,55.01
2023-05-03T08:27:37.444Z,54.95
2023-05-03T08:30:39.026Z,55.04
2023-05-03T08:33:40.538Z,55.02
2023-05-03T08:36:42.023Z,55.26
2023-05-03T08:39:43.532Z,55.21
2023-05-03T08:42:46.121Z,55.27
2023-05-03T08:45:47.789Z,55.22
2023-05-03T08:48:52.504Z,55.20
2023-05-03T08:51:55.585Z,55.25
2023-05-03T08:54:57.289Z,55.25
2023-05-03T08:58:00.490Z,55.38
2023-05-03T09:01:09.757Z,55.20
2023-05-03T09:04:11.916Z,55.40
2023-05-03T09:07:15.852Z,55.48
2023-05-03T09:10:24.485Z,55.57
2023-05-03T09:13:32.296Z,55.49
2023-05-03T09:16:33.922Z,55.55
2023-05-03T09:19:50.499Z,55.57
2023-05-03T09:22:52.590Z,55.50
2023-05-03T09:25:54.576Z,55.61
2023-05-03T09:28:58.063Z,55.66
2023-05-03T09:32:01.387Z,55.61
2023-05-03T09:35:10.103Z,55.67
2023-05-03T09:38:27.035Z,55.94
2023-05-03T09:41:29.384Z,55.82
2023-05-03T09:44:41.850Z,55.83
2023-05-03T09:47:52.308Z,55.82
2023-05-03T09:50:54.057Z,55.92
2023-05-03T09:53:56.624Z,55.95
2023-05-03T09:56:59.099Z,56.03
2023-05-03T10:00:00.722Z,56.00
2023-05-03T10:03:07.055Z,56.10
2023-05-03T10:06:16.332Z,56.06
2023-05-03T10:09:20.529Z,56.07
2023-05-03T10:12:22.522Z,56.11
2023-05-03T10:15:27.000Z,56.08
2023-05-03T10:18:32.229Z,56.07
2023-05-03T10:21:46.973Z,56.15
2023-05-03T10:25:01.414Z,56.14
2023-05-03T10:28:07.283Z,56.39
2023-05-03T10:31:45.375Z,56.22
2023-05-03T10:34:47.022Z,56.23
2023-05-03T10:37:50.472Z,56.17
2023-05-03T10:40:53.166Z,56.28
2023-05-03T10:43:54.694Z,56.45
2023-05-03T10:46:57.218Z,56.50
2023-05-03T10:50:17.228Z,56.24
2023-05-03T10:53:31.116Z,56.37
2023-05-03T10:56:32.611Z,56.30
2023-05-03T10:59:47.564Z,56.34
2023-05-03T11:03:09.899Z,56.34
2023-05-03T11:06:27.742Z,56.33
2023-05-03T11:09:33.809Z,56.36
2023-05-03T11:12:35.305Z,56.42
2023-05-03T11:15:37.000Z,56.53
2023-05-03T11:18:38.987Z,56.55
2023-05-03T11:21:40.492Z,56.65
2023-05-03T11:24:41.953Z,56.64
2023-05-03T11:27:44.453Z,56.71
2023-05-03T11:30:46.950Z,56.79
2023-05-03T11:33:49.788Z,56.87
2023-05-03T11:36:51.329Z,56.85
2023-05-03T11:39:52.772Z,57.00
2023-05-03T11:42:56.196Z,56.98
2023-05-03T11:45:59.271Z,57.00
2023-05-03T11:49:02.149Z,56.99
2023-05-03T11:52:03.964Z,57.09
2023-05-03T11:55:07.900Z,57.03
2023-05-03T11:58:32.046Z,57.21
2023-05-03T12:01:33.554Z,57.08
2023-05-03T12:04:37.101Z,57.07
2023-05-03T12:07:39.432Z,57.14
2023-05-03T12:10:42.918Z,57.22
2023-05-03T12:13:44.857Z,57.26
2023-05-03T12:16:51.827Z,57.46
2023-05-03T12:20:50.510Z,57.59
2023-05-03T12:23:35.792Z,57.95
2023-05-03T12:26:38.075Z,58.20
2023-05-03T12:29:41.679Z,58.71
2023-05-03T12:32:44.496Z,58.72
2023-05-03T12:35:48.117Z,58.66
2023-05-03T12:38:55.840Z,58.53
2023-05-03T12:45:04.949Z,58.89
2023-05-03T12:48:06.825Z,59.06
2023-05-03T12:51:19.467Z,59.11
2023-05-03T12:54:26.747Z,58.79
2023-05-03T12:57:30.669Z,59.01
2023-05-03T13:00:36.372Z,59.10
2023-05-03T13:03:43.673Z,58.96
2023-05-03T13:06:46.754Z,58.67
2023-05-03T13:12:54.058Z,58.88
2023-05-03T13:15:55.725Z,58.66
2023-05-03T13:18:57.236Z,58.85
2023-05-03T13:21:58.695Z,59.03
2023-05-03T13:25:00.188Z,58.74
2023-05-03T13:28:01.996Z,58.59
2023-05-03T13:31:03.558Z,58.69
2023-05-03T13:34:06.115Z,58.69
2023-05-03T13:37:07.679Z,58.50
2023-05-03T13:40:10.045Z,58.67
2023-05-03T13:43:11.544Z,58.55
2023-05-03T13:46:13.106Z,58.55
2023-05-03T13:49:14.688Z,58.57
2023-05-03T13:52:16.260Z,58.63
2023-05-03T13:55:17.880Z,58.63
2023-05-03T13:58:19.446Z,58.75
2023-05-03T14:01:21.018Z,59.09
2023-05-03T14:04:24.397Z,58.94
2023-05-03T14:07:25.921Z,58.87
2023-05-03T14:10:27.478Z,59.09
2023-05-03T14:13:32.982Z,59.10
2023-05-03T14:16:41.449Z,59.07
2023-05-03T14:19:43.670Z,59.22
2023-05-03T14:22:45.751Z,59.15
2023-05-03T14:25:47.257Z,59.24
2023-05-03T14:28:48.807Z,59.27
2023-05-03T14:31:50.571Z,58.95
2023-05-03T14:34:52.185Z,59.32
2023-05-03T14:37:53.842Z,59.35
2023-05-03T14:40:55.430Z,59.36
2023-05-03T14:43:56.979Z,59.37
2023-05-03T14:46:59.044Z,59.47
2023-05-03T14:50:01.368Z,59.59
2023-05-03T14:53:03.451Z,59.65
2023-05-03T14:56:05.012Z,59.65
2023-05-03T14:59:06.959Z,59.95
2023-05-03T15:02:10.136Z,59.63
2023-05-03T15:05:12.860Z,59.93
2023-05-03T15:08:16.016Z,59.81
2023-05-03T15:11:17.707Z,59.92
2023-05-03T15:14:19.325Z,59.80
2023-05-03T15:17:20.992Z,59.79
2023-05-03T15:20:22.844Z,60.02
2023-05-03T15:23:24.624Z,59.61
2023-05-03T15:26:26.425Z,59.89
2023-05-03T15:29:28.331Z,59.76
2023-05-03T15:32:30.062Z,59.64
2023-05-03T15:35:31.549Z,59.44
2023-05-03T15:38:32.997Z,59.34
2023-05-03T15:41:34.472Z,59.39
2023-05-03T15:44:37.134Z,59.13
2023-05-03T15:47:38.732Z,59.44
2023-05-03T15:50:40.388Z,59.46
2023-05-03T15:53:41.948Z,59.15
2023-05-03T15:56:47.166Z,59.54
2023-05-03T15:59:49.381Z,59.25
2023-05-03T16:02:51.022Z,59.41
2023-05-03T16:05:53.307Z,59.22
2023-05-03T16:08:54.794Z,59.29
2023-05-03T16:11:57.669Z,59.16
2023-05-03T16:14:59.188Z,59.47
2023-05-03T16:18:01.319Z,59.57
2023-05-03T16:21:02.981Z,59.50
2023-05-03T16:24:04.864Z,59.30
2023-05-03T16:27:06.400Z,59.41
2023-05-03T16:30:09.078Z,59.49
2023-05-03T16:33:10.702Z,59.49
2023-05-03T16:36:12.176Z,59.40
2023-05-03T16:39:14.578Z,59.42
2023-05-03T16:42:16.238Z,59.48
2023-05-03T16:45:19.552Z,59.29
2023-05-03T16:48:21.982Z,59.57
2023-05-03T16:51:23.554Z,58.93
2023-05-03T16:54:25.150Z,58.97
2023-05-03T16:57:26.874Z,58.63
2023-05-03T17:00:28.832Z,58.82
2023-05-03T17:03:30.726Z,58.63
2023-05-03T17:06:32.562Z,58.50
2023-05-03T17:09:34.161Z,58.60
2023-05-03T17:12:35.851Z,58.28
2023-05-03T17:15:37.454Z,58.51
2023-05-03T17:18:40.420Z,57.87
2023-05-03T17:21:42.008Z,57.80
2023-05-03T17:24:43.604Z,57.91
2023-05-03T17:27:45.228Z,57.89
2023-05-03T17:30:46.715Z,57.76
2023-05-03T17:33:48.245Z,57.38
2023-05-03T17:36:49.975Z,57.50
2023-05-03T17:39:51.604Z,57.59
2023-05-03T17:42:53.174Z,57.69
2023-05-03T17:45:54.698Z,57.50
2023-05-03T17:48:57.703Z,57.29
2023-05-03T17:51:59.597Z,57.22
2023-05-03T17:55:02.501Z,56.87
2023-05-03T17:58:05.998Z,56.63
2023-05-03T18:01:10.406Z,56.67
2023-05-03T18:04:12.043Z,56.91
2023-05-03T18:07:14.755Z,56.93
2023-05-03T18:10:17.478Z,57.18
2023-05-03T18:13:19.188Z,57.21
2023-05-03T18:16:20.756Z,57.21
2023-05-03T18:19:22.479Z,57.31
2023-05-03T18:22:27.368Z,57.58
2023-05-03T18:25:29.317Z,57.62
2023-05-03T18:28:30.842Z,57.60
2023-05-03T18:31:32.389Z,57.67
2023-05-03T18:34:37.253Z,57.69
2023-05-03T18:37:38.690Z,57.71
2023-05-03T18:40:40.309Z,57.60
2023-05-03T18:43:43.310Z,57.62
2023-05-03T18:46:44.807Z,57.75
2023-05-03T18:49:48.440Z,57.66
2023-05-03T18:52:50.764Z,57.80
2023-05-03T18:55:52.372Z,57.68
2023-05-03T18:58:53.822Z,57.65
2023-05-03T19:01:55.353Z,57.51
2023-05-03T19:04:56.951Z,57.48
2023-05-03T19:07:58.417Z,57.73
2023-05-03T19:11:14.269Z,57.30
2023-05-03T19:14:16.201Z,57.42
2023-05-03T19:17:17.725Z,57.53
2023-05-03T19:20:19.308Z,57.25
2023-05-03T19:23:20.842Z,57.36
2023-05-03T19:26:22.293Z,57.30
2023-05-03T19:29:23.862Z,57.37
2023-05-03T19:32:25.395Z,57.27
2023-05-03T19:35:26.865Z,57.46
2023-05-03T19:38:28.309Z,57.62
2023-05-03T19:41:30.080Z,57.59
2023-05-03T19:44:31.864Z,57.49
2023-05-03T19:47:33.587Z,57.42
2023-05-03T19:50:35.876Z,57.63
2023-05-03T19:53:37.729Z,57.58
2023-05-03T19:56:39.181Z,57.50
2023-05-03T19:59:40.629Z,57.54
2023-05-03T20:02:42.159Z,57.53
2023-05-03T20:05:43.928Z,57.54
2023-05-03T20:08:45.448Z,57.68
2023-05-03T20:11:48.492Z,57.46
2023-05-03T20:14:49.953Z,57.65
2023-05-03T20:17:53.344Z,57.67
2023-05-03T20:20:54.817Z,58.26
2023-05-03T20:23:56.718Z,57.76
2023-05-03T20:26:58.210Z,57.74
2023-05-03T20:29:59.651Z,57.66
2023-05-03T20:33:01.256Z,57.69
2023-05-03T20:36:02.905Z,57.61
2023-05-03T20:39:05.039Z,57.58
2023-05-03T20:42:06.506Z,57.67
2023-05-03T20:45:08.422Z,57.75
2023-05-03T20:48:09.967Z,57.59
2023-05-03T20:51:11.510Z,57.57
2023-05-03T20:54:13.233Z,57.74
2023-05-03T20:57:17.843Z,57.78
2023-05-03T21:00:20.935Z,57.75
2023-05-03T21:03:28.080Z,57.77
2023-05-03T21:06:29.647Z,57.87
2023-05-03T21:09:31.461Z,57.81
2023-05-03T21:12:33.525Z,57.82
2023-05-03T21:15:37.166Z,57.79
2023-05-03T21:18:38.657Z,58.17
2023-05-03T21:21:41.212Z,57.76
2023-05-03T21:24:42.816Z,57.92
2023-05-03T21:27:44.252Z,58.24
2023-05-03T21:30:48.282Z,57.96
2023-05-03T21:33:49.767Z,57.95
2023-05-03T21:36:51.303Z,57.91
2023-05-03T21:40:01.033Z,57.70
2023-05-03T21:43:04.614Z,57.88
2023-05-03T21:46:09.701Z,58.21
2023-05-03T21:49:11.856Z,58.15
2023-05-03T21:52:13.706Z,57.93
2023-05-03T21:55:15.227Z,57.92
2023-05-03T21:58:16.689Z,57.92
2023-05-03T22:01:19.975Z,58.02
2023-05-03T22:04:21.661Z,58.10
2023-05-03T22:07:23.165Z,57.92
2023-05-03T22:10:24.819Z,57.94
2023-05-03T22:13:26.302Z,57.86
2023-05-03T22:16:27.857Z,57.88
2023-05-03T22:19:29.655Z,57.84
2023-05-03T22:22:31.388Z,58.02
2023-05-03T22:25:32.901Z,57.89
2023-05-03T22:28:34.394Z,58.05
2023-05-03T22:31:36.204Z,58.17
2023-05-03T22:34:37.692Z,58.03
2023-05-03T22:37:39.153Z,58.07
2023-05-03T22:40:40.911Z,58.34
2023-05-03T22:43:42.461Z,58.20
2023-05-03T22:46:43.980Z,58.13
2023-05-03T22:49:45.413Z,58.53
2023-05-03T22:52:47.099Z,58.04
2023-05-03T22:55:58.595Z,58.34
2023-05-03T22:59:00.027Z,58.12
2023-05-03T23:02:01.556Z,58.33
2023-05-03T23:05:03.120Z,58.17
2023-05-03T23:08:04.647Z,58.44
2023-05-03T23:11:06.137Z,58.31
2023-05-03T23:14:07.614Z,58.06
2023-05-03T23:17:12.907Z,58.40
2023-05-03T23:20:14.868Z,58.68
2023-05-03T23:23:16.535Z,58.44
2023-05-03T23:26:18.026Z,58.40
2023-05-03T23:29:19.903Z,58.70
2023-05-03T23:32:22.055Z,58.52
2023-05-03T23:35:24.233Z,58.59
2023-05-03T23:38:25.772Z,58.76
2023-05-03T23:41:27.435Z,58.73
2023-05-03T23:44:38.693Z,58.78
2023-05-03T23:47:48.217Z,58.75
2023-05-03T23:50:49.728Z,58.84
2023-05-03T23:53:51.402Z,59.47
2023-05-03T23:56:52.983Z,59.02
2023-05-03T23:59:54.547Z,59.02
